sensor_id;sensor_type;location;lat;lon;timestamp;P1;durP1;ratioP1;P2;durP2;ratioP2
49241;SDS011;35079;52.704;13.814;2023-06-14T00:01:37;6.53;;;3.03;;
49241;SDS011;35079;52.704;13.814;2023-06-14T00:04:03;4.45;;;3.55;;
49241;SDS011;35079;52.704;13.814;2023-06-14T00:06:30;6.28;;;3.25;;
49241;SDS011;35079;52.704;13.814;2023-06-14T00:08:56;4.45;;;3.28;;
49241;SDS011;35079;52.704;13.814;2023-06-14T00:11:22;4.50;;;3.13;;
49241;SDS011;35079;52.704;13.814;2023-06-14T00:13:47;4.50;;;2.88;;
49241;SDS011;35079;52.704;13.814;2023-06-14T00:16:13;3.88;;;2.80;;
49241;SDS011;35079;52.704;13.814;2023-06-14T00:18:38;5.65;;;3.40;;
49241;SDS011;35079;52.704;13.814;2023-06-14T00:21:04;7.00;;;3.10;;
49241;SDS011;35079;52.704;13.814;2023-06-14T00:23:30;4.90;;;3.00;;
49241;SDS011;35079;52.704;13.814;2023-06-14T00:25:56;6.15;;;3.50;;
49241;SDS011;35079;52.704;13.814;2023-06-14T00:28:21;4.30;;;3.50;;
49241;SDS011;35079;52.704;13.814;2023-06-14T00:30:47;4.35;;;3.15;;
49241;SDS011;35079;52.704;13.814;2023-06-14T00:33:13;5.32;;;3.65;;
49241;SDS011;35079;52.704;13.814;2023-06-14T00:35:38;7.70;;;3.42;;
49241;SDS011;35079;52.704;13.814;2023-06-14T00:38:05;6.70;;;3.53;;
49241;SDS011;35079;52.704;13.814;2023-06-14T00:40:30;6.70;;;3.85;;
49241;SDS011;35079;52.704;13.814;2023-06-14T00:42:56;4.88;;;3.55;;
49241;SDS011;35079;52.704;13.814;2023-06-14T00:45:21;4.75;;;3.28;;
49241;SDS011;35079;52.704;13.814;2023-06-14T00:47:47;3.90;;;3.50;;
49241;SDS011;35079;52.704;13.814;2023-06-14T00:50:16;5.43;;;4.05;;
49241;SDS011;35079;52.704;13.814;2023-06-14T00:52:42;5.57;;;3.65;;
49241;SDS011;35079;52.704;13.814;2023-06-14T00:55:08;3.67;;;3.38;;
49241;SDS011;35079;52.704;13.814;2023-06-14T00:57:33;7.18;;;4.18;;
49241;SDS011;35079;52.704;13.814;2023-06-14T01:00:02;5.90;;;4.05;;
49241;SDS011;35079;52.704;13.814;2023-06-14T01:02:33;4.85;;;3.90;;
49241;SDS011;35079;52.704;13.814;2023-06-14T01:04:59;4.90;;;4.18;;
49241;SDS011;35079;52.704;13.814;2023-06-14T01:13:15;4.45;;;4.05;;
49241;SDS011;35079;52.704;13.814;2023-06-14T01:15:46;6.95;;;3.90;;
49241;SDS011;35079;52.704;13.814;2023-06-14T01:18:12;6.72;;;4.35;;
49241;SDS011;35079;52.704;13.814;2023-06-14T01:20:44;7.03;;;3.67;;
49241;SDS011;35079;52.704;13.814;2023-06-14T01:23:14;6.15;;;3.78;;
49241;SDS011;35079;52.704;13.814;2023-06-14T01:25:43;6.97;;;4.10;;
49241;SDS011;35079;52.704;13.814;2023-06-14T01:28:09;7.15;;;4.10;;
49241;SDS011;35079;52.704;13.814;2023-06-14T01:30:38;4.95;;;3.63;;
49241;SDS011;35079;52.704;13.814;2023-06-14T01:33:09;8.30;;;3.65;;
49241;SDS011;35079;52.704;13.814;2023-06-14T01:35:41;5.43;;;3.40;;
49241;SDS011;35079;52.704;13.814;2023-06-14T01:38:15;6.95;;;3.50;;
49241;SDS011;35079;52.704;13.814;2023-06-14T01:40:44;5.72;;;3.45;;
49241;SDS011;35079;52.704;13.814;2023-06-14T01:43:10;5.93;;;3.03;;
49241;SDS011;35079;52.704;13.814;2023-06-14T01:45:38;5.63;;;3.22;;
49241;SDS011;35079;52.704;13.814;2023-06-14T01:48:06;3.53;;;2.95;;
49241;SDS011;35079;52.704;13.814;2023-06-14T01:50:32;4.60;;;3.55;;
49241;SDS011;35079;52.704;13.814;2023-06-14T01:52:58;5.07;;;3.80;;
49241;SDS011;35079;52.704;13.814;2023-06-14T01:55:24;7.75;;;3.97;;
49241;SDS011;35079;52.704;13.814;2023-06-14T01:57:50;5.22;;;3.60;;
49241;SDS011;35079;52.704;13.814;2023-06-14T02:00:16;5.32;;;3.60;;
49241;SDS011;35079;52.704;13.814;2023-06-14T02:02:43;7.45;;;3.80;;
49241;SDS011;35079;52.704;13.814;2023-06-14T02:05:09;5.15;;;3.33;;
49241;SDS011;35079;52.704;13.814;2023-06-14T02:07:35;6.57;;;3.38;;
49241;SDS011;35079;52.704;13.814;2023-06-14T02:10:01;3.90;;;3.50;;
49241;SDS011;35079;52.704;13.814;2023-06-14T02:12:28;4.55;;;3.75;;
49241;SDS011;35079;52.704;13.814;2023-06-14T02:14:53;7.28;;;3.67;;
49241;SDS011;35079;52.704;13.814;2023-06-14T02:17:19;4.47;;;3.47;;
49241;SDS011;35079;52.704;13.814;2023-06-14T02:19:45;5.95;;;3.78;;
49241;SDS011;35079;52.704;13.814;2023-06-14T02:22:11;6.32;;;3.63;;
49241;SDS011;35079;52.704;13.814;2023-06-14T02:24:36;7.18;;;4.13;;
49241;SDS011;35079;52.704;13.814;2023-06-14T02:27:02;5.70;;;3.97;;
49241;SDS011;35079;52.704;13.814;2023-06-14T02:29:28;6.55;;;3.55;;
49241;SDS011;35079;52.704;13.814;2023-06-14T02:31:54;8.55;;;3.60;;
49241;SDS011;35079;52.704;13.814;2023-06-14T02:34:19;6.28;;;3.30;;
49241;SDS011;35079;52.704;13.814;2023-06-14T02:36:46;4.60;;;4.20;;
49241;SDS011;35079;52.704;13.814;2023-06-14T02:39:13;4.47;;;3.83;;
49241;SDS011;35079;52.704;13.814;2023-06-14T02:41:39;6.45;;;3.72;;
49241;SDS011;35079;52.704;13.814;2023-06-14T02:44:05;9.10;;;4.15;;
49241;SDS011;35079;52.704;13.814;2023-06-14T02:46:31;8.75;;;4.38;;
49241;SDS011;35079;52.704;13.814;2023-06-14T02:48:57;5.82;;;4.50;;
49241;SDS011;35079;52.704;13.814;2023-06-14T02:51:22;5.18;;;3.67;;
49241;SDS011;35079;52.704;13.814;2023-06-14T02:53:48;7.60;;;4.85;;
49241;SDS011;35079;52.704;13.814;2023-06-14T02:56:14;5.60;;;4.30;;
49241;SDS011;35079;52.704;13.814;2023-06-14T02:58:42;8.15;;;4.15;;
49241;SDS011;35079;52.704;13.814;2023-06-14T03:01:08;5.80;;;3.92;;
49241;SDS011;35079;52.704;13.814;2023-06-14T03:03:37;6.55;;;4.13;;
49241;SDS011;35079;52.704;13.814;2023-06-14T03:06:03;4.68;;;3.95;;
49241;SDS011;35079;52.704;13.814;2023-06-14T03:08:30;13.00;;;4.10;;
49241;SDS011;35079;52.704;13.814;2023-06-14T03:11:03;8.13;;;4.00;;
49241;SDS011;35079;52.704;13.814;2023-06-14T03:13:30;5.60;;;4.18;;
49241;SDS011;35079;52.704;13.814;2023-06-14T03:15:59;5.82;;;4.07;;
49241;SDS011;35079;52.704;13.814;2023-06-14T03:18:25;7.03;;;4.20;;
49241;SDS011;35079;52.704;13.814;2023-06-14T03:20:51;7.70;;;4.40;;
49241;SDS011;35079;52.704;13.814;2023-06-14T03:23:18;5.10;;;3.45;;
49241;SDS011;35079;52.704;13.814;2023-06-14T03:25:44;6.90;;;3.97;;
49241;SDS011;35079;52.704;13.814;2023-06-14T03:28:10;7.88;;;4.20;;
49241;SDS011;35079;52.704;13.814;2023-06-14T03:30:35;4.65;;;3.90;;
49241;SDS011;35079;52.704;13.814;2023-06-14T03:33:01;8.00;;;4.55;;
49241;SDS011;35079;52.704;13.814;2023-06-14T03:35:27;6.60;;;4.38;;
49241;SDS011;35079;52.704;13.814;2023-06-14T03:37:53;5.30;;;4.22;;
49241;SDS011;35079;52.704;13.814;2023-06-14T03:40:20;7.80;;;4.30;;
49241;SDS011;35079;52.704;13.814;2023-06-14T03:42:46;7.20;;;4.15;;
49241;SDS011;35079;52.704;13.814;2023-06-14T03:45:12;5.55;;;4.22;;
49241;SDS011;35079;52.704;13.814;2023-06-14T03:47:37;5.75;;;4.45;;
49241;SDS011;35079;52.704;13.814;2023-06-14T03:50:03;7.25;;;4.60;;
49241;SDS011;35079;52.704;13.814;2023-06-14T03:52:30;9.02;;;4.45;;
49241;SDS011;35079;52.704;13.814;2023-06-14T03:54:56;7.20;;;4.30;;
49241;SDS011;35079;52.704;13.814;2023-06-14T03:57:22;6.95;;;4.65;;
49241;SDS011;35079;52.704;13.814;2023-06-14T03:59:48;5.72;;;4.72;;
49241;SDS011;35079;52.704;13.814;2023-06-14T04:02:14;6.15;;;4.30;;
49241;SDS011;35079;52.704;13.814;2023-06-14T04:04:41;5.78;;;4.38;;
49241;SDS011;35079;52.704;13.814;2023-06-14T04:07:10;6.25;;;4.47;;
49241;SDS011;35079;52.704;13.814;2023-06-14T04:09:39;5.30;;;4.30;;
49241;SDS011;35079;52.704;13.814;2023-06-14T04:12:05;7.53;;;4.72;;
49241;SDS011;35079;52.704;13.814;2023-06-14T04:14:33;6.10;;;4.55;;
49241;SDS011;35079;52.704;13.814;2023-06-14T04:16:59;6.20;;;4.22;;
49241;SDS011;35079;52.704;13.814;2023-06-14T04:19:25;5.55;;;4.15;;
49241;SDS011;35079;52.704;13.814;2023-06-14T04:21:51;6.10;;;4.05;;
49241;SDS011;35079;52.704;13.814;2023-06-14T04:24:17;6.78;;;4.72;;
49241;SDS011;35079;52.704;13.814;2023-06-14T04:26:43;5.53;;;4.15;;
49241;SDS011;35079;52.704;13.814;2023-06-14T04:29:10;7.32;;;4.18;;
49241;SDS011;35079;52.704;13.814;2023-06-14T04:31:39;6.75;;;4.35;;
49241;SDS011;35079;52.704;13.814;2023-06-14T04:34:05;6.88;;;3.95;;
49241;SDS011;35079;52.704;13.814;2023-06-14T04:36:32;4.90;;;4.13;;
49241;SDS011;35079;52.704;13.814;2023-06-14T04:39:06;7.40;;;4.25;;
49241;SDS011;35079;52.704;13.814;2023-06-14T04:41:32;7.43;;;4.85;;
49241;SDS011;35079;52.704;13.814;2023-06-14T04:44:00;8.40;;;4.30;;
49241;SDS011;35079;52.704;13.814;2023-06-14T04:46:28;5.95;;;4.35;;
49241;SDS011;35079;52.704;13.814;2023-06-14T04:48:56;8.73;;;4.20;;
49241;SDS011;35079;52.704;13.814;2023-06-14T04:51:22;7.80;;;3.88;;
49241;SDS011;35079;52.704;13.814;2023-06-14T04:53:55;7.28;;;3.88;;
49241;SDS011;35079;52.704;13.814;2023-06-14T04:56:23;5.25;;;3.85;;
49241;SDS011;35079;52.704;13.814;2023-06-14T04:58:51;8.63;;;4.65;;
49241;SDS011;35079;52.704;13.814;2023-06-14T05:01:18;8.10;;;4.65;;
49241;SDS011;35079;52.704;13.814;2023-06-14T05:03:45;11.13;;;4.45;;
49241;SDS011;35079;52.704;13.814;2023-06-14T05:06:14;5.82;;;4.43;;
49241;SDS011;35079;52.704;13.814;2023-06-14T05:08:40;7.35;;;4.47;;
49241;SDS011;35079;52.704;13.814;2023-06-14T05:11:06;5.90;;;4.25;;
49241;SDS011;35079;52.704;13.814;2023-06-14T05:13:31;7.60;;;4.03;;
49241;SDS011;35079;52.704;13.814;2023-06-14T05:15:57;7.05;;;3.88;;
49241;SDS011;35079;52.704;13.814;2023-06-14T05:18:24;7.97;;;4.30;;
49241;SDS011;35079;52.704;13.814;2023-06-14T05:20:50;5.47;;;4.15;;
49241;SDS011;35079;52.704;13.814;2023-06-14T05:23:16;5.55;;;4.30;;
49241;SDS011;35079;52.704;13.814;2023-06-14T05:25:45;8.55;;;4.38;;
49241;SDS011;35079;52.704;13.814;2023-06-14T05:28:11;8.95;;;4.20;;
49241;SDS011;35079;52.704;13.814;2023-06-14T05:30:37;6.93;;;4.20;;
49241;SDS011;35079;52.704;13.814;2023-06-14T05:33:04;5.43;;;4.05;;
49241;SDS011;35079;52.704;13.814;2023-06-14T05:35:30;6.20;;;3.97;;
49241;SDS011;35079;52.704;13.814;2023-06-14T05:37:56;7.18;;;4.38;;
49241;SDS011;35079;52.704;13.814;2023-06-14T05:40:21;7.18;;;4.50;;
49241;SDS011;35079;52.704;13.814;2023-06-14T05:42:47;6.65;;;4.10;;
49241;SDS011;35079;52.704;13.814;2023-06-14T05:45:12;5.20;;;4.00;;
49241;SDS011;35079;52.704;13.814;2023-06-14T05:47:40;8.23;;;4.57;;
49241;SDS011;35079;52.704;13.814;2023-06-14T05:50:07;6.80;;;4.50;;
49241;SDS011;35079;52.704;13.814;2023-06-14T05:52:33;7.75;;;4.47;;
49241;SDS011;35079;52.704;13.814;2023-06-14T05:55:00;9.25;;;4.53;;
49241;SDS011;35079;52.704;13.814;2023-06-14T05:57:27;7.10;;;4.65;;
49241;SDS011;35079;52.704;13.814;2023-06-14T05:59:53;6.38;;;4.18;;
49241;SDS011;35079;52.704;13.814;2023-06-14T06:02:19;5.50;;;4.10;;
49241;SDS011;35079;52.704;13.814;2023-06-14T06:04:44;8.13;;;4.50;;
49241;SDS011;35079;52.704;13.814;2023-06-14T06:07:10;7.07;;;3.92;;
49241;SDS011;35079;52.704;13.814;2023-06-14T06:09:41;7.47;;;4.63;;
49241;SDS011;35079;52.704;13.814;2023-06-14T06:12:06;6.90;;;4.47;;
49241;SDS011;35079;52.704;13.814;2023-06-14T06:14:32;6.30;;;4.35;;
49241;SDS011;35079;52.704;13.814;2023-06-14T06:16:58;8.25;;;4.30;;
49241;SDS011;35079;52.704;13.814;2023-06-14T06:19:24;7.90;;;4.43;;
49241;SDS011;35079;52.704;13.814;2023-06-14T06:21:49;5.75;;;4.60;;
49241;SDS011;35079;52.704;13.814;2023-06-14T06:24:15;6.40;;;4.13;;
49241;SDS011;35079;52.704;13.814;2023-06-14T06:26:41;8.93;;;4.70;;
49241;SDS011;35079;52.704;13.814;2023-06-14T06:29:08;5.93;;;4.07;;
49241;SDS011;35079;52.704;13.814;2023-06-14T06:31:33;11.50;;;4.80;;
49241;SDS011;35079;52.704;13.814;2023-06-14T06:33:59;4.38;;;3.92;;
49241;SDS011;35079;52.704;13.814;2023-06-14T06:36:25;7.55;;;4.45;;
49241;SDS011;35079;52.704;13.814;2023-06-14T06:38:50;6.90;;;4.25;;
49241;SDS011;35079;52.704;13.814;2023-06-14T06:41:16;8.68;;;4.18;;
49241;SDS011;35079;52.704;13.814;2023-06-14T06:43:41;5.72;;;3.78;;
49241;SDS011;35079;52.704;13.814;2023-06-14T06:46:07;8.77;;;3.80;;
49241;SDS011;35079;52.704;13.814;2023-06-14T06:48:33;9.45;;;4.50;;
49241;SDS011;35079;52.704;13.814;2023-06-14T06:50:58;8.65;;;4.53;;
49241;SDS011;35079;52.704;13.814;2023-06-14T06:53:24;6.45;;;4.38;;
49241;SDS011;35079;52.704;13.814;2023-06-14T06:55:50;5.78;;;4.38;;
49241;SDS011;35079;52.704;13.814;2023-06-14T06:58:15;6.95;;;4.30;;
49241;SDS011;35079;52.704;13.814;2023-06-14T07:00:41;5.13;;;4.13;;
49241;SDS011;35079;52.704;13.814;2023-06-14T07:03:07;8.35;;;4.55;;
49241;SDS011;35079;52.704;13.814;2023-06-14T07:05:33;7.95;;;4.50;;
49241;SDS011;35079;52.704;13.814;2023-06-14T07:07:58;10.50;;;4.88;;
49241;SDS011;35079;52.704;13.814;2023-06-14T07:10:24;7.30;;;4.72;;
49241;SDS011;35079;52.704;13.814;2023-06-14T07:12:50;5.30;;;4.50;;
49241;SDS011;35079;52.704;13.814;2023-06-14T07:15:16;5.70;;;4.40;;
49241;SDS011;35079;52.704;13.814;2023-06-14T07:17:42;8.77;;;4.40;;
49241;SDS011;35079;52.704;13.814;2023-06-14T07:20:08;7.22;;;4.30;;
49241;SDS011;35079;52.704;13.814;2023-06-14T07:22:37;10.15;;;4.78;;
49241;SDS011;35079;52.704;13.814;2023-06-14T07:25:05;9.75;;;4.30;;
49241;SDS011;35079;52.704;13.814;2023-06-14T07:27:33;10.30;;;4.13;;
49241;SDS011;35079;52.704;13.814;2023-06-14T07:29:59;7.55;;;4.00;;
49241;SDS011;35079;52.704;13.814;2023-06-14T07:32:24;7.18;;;4.20;;
49241;SDS011;35079;52.704;13.814;2023-06-14T07:34:50;6.25;;;4.15;;
49241;SDS011;35079;52.704;13.814;2023-06-14T07:37:16;7.32;;;4.15;;
49241;SDS011;35079;52.704;13.814;2023-06-14T07:39:41;8.43;;;4.32;;
49241;SDS011;35079;52.704;13.814;2023-06-14T07:42:07;8.90;;;4.13;;
49241;SDS011;35079;52.704;13.814;2023-06-14T07:44:33;6.78;;;4.30;;
49241;SDS011;35079;52.704;13.814;2023-06-14T07:46:58;9.25;;;4.30;;
49241;SDS011;35079;52.704;13.814;2023-06-14T07:49:25;7.47;;;4.53;;
49241;SDS011;35079;52.704;13.814;2023-06-14T07:51:51;6.03;;;3.90;;
49241;SDS011;35079;52.704;13.814;2023-06-14T07:54:18;6.47;;;4.03;;
49241;SDS011;35079;52.704;13.814;2023-06-14T07:56:44;6.15;;;3.80;;
49241;SDS011;35079;52.704;13.814;2023-06-14T07:59:17;8.73;;;4.20;;
49241;SDS011;35079;52.704;13.814;2023-06-14T08:02:15;7.85;;;3.95;;
49241;SDS011;35079;52.704;13.814;2023-06-14T08:04:58;5.57;;;3.60;;
49241;SDS011;35079;52.704;13.814;2023-06-14T08:07:27;6.72;;;3.97;;
49241;SDS011;35079;52.704;13.814;2023-06-14T08:10:02;6.90;;;4.15;;
49241;SDS011;35079;52.704;13.814;2023-06-14T08:12:28;9.98;;;4.07;;
49241;SDS011;35079;52.704;13.814;2023-06-14T08:14:53;4.60;;;3.75;;
49241;SDS011;35079;52.704;13.814;2023-06-14T08:17:19;4.93;;;4.00;;
49241;SDS011;35079;52.704;13.814;2023-06-14T08:19:46;7.40;;;3.72;;
49241;SDS011;35079;52.704;13.814;2023-06-14T08:22:11;6.75;;;4.03;;
49241;SDS011;35079;52.704;13.814;2023-06-14T08:24:37;5.20;;;4.20;;
49241;SDS011;35079;52.704;13.814;2023-06-14T08:27:04;5.50;;;4.00;;
49241;SDS011;35079;52.704;13.814;2023-06-14T08:29:31;6.65;;;3.67;;
49241;SDS011;35079;52.704;13.814;2023-06-14T08:31:56;4.50;;;3.83;;
49241;SDS011;35079;52.704;13.814;2023-06-14T08:34:23;8.25;;;3.90;;
49241;SDS011;35079;52.704;13.814;2023-06-14T08:36:49;5.03;;;4.00;;
49241;SDS011;35079;52.704;13.814;2023-06-14T08:39:15;5.10;;;3.70;;
49241;SDS011;35079;52.704;13.814;2023-06-14T08:41:41;7.40;;;3.63;;
49241;SDS011;35079;52.704;13.814;2023-06-14T08:44:10;6.70;;;3.70;;
49241;SDS011;35079;52.704;13.814;2023-06-14T08:46:36;4.53;;;3.38;;
49241;SDS011;35079;52.704;13.814;2023-06-14T08:49:02;7.22;;;4.00;;
49241;SDS011;35079;52.704;13.814;2023-06-14T08:51:30;5.82;;;3.53;;
49241;SDS011;35079;52.704;13.814;2023-06-14T08:54:01;6.68;;;4.07;;
49241;SDS011;35079;52.704;13.814;2023-06-14T08:56:29;4.82;;;3.17;;
49241;SDS011;35079;52.704;13.814;2023-06-14T08:58:56;6.68;;;3.50;;
49241;SDS011;35079;52.704;13.814;2023-06-14T09:01:26;5.20;;;3.30;;
49241;SDS011;35079;52.704;13.814;2023-06-14T09:03:51;3.97;;;3.30;;
49241;SDS011;35079;52.704;13.814;2023-06-14T09:06:20;6.15;;;3.08;;
49241;SDS011;35079;52.704;13.814;2023-06-14T09:08:49;6.68;;;3.30;;
49241;SDS011;35079;52.704;13.814;2023-06-14T09:11:15;3.33;;;3.03;;
49241;SDS011;35079;52.704;13.814;2023-06-14T09:13:44;5.82;;;2.92;;
49241;SDS011;35079;52.704;13.814;2023-06-14T09:16:10;5.80;;;3.00;;
49241;SDS011;35079;52.704;13.814;2023-06-14T09:18:40;3.97;;;3.20;;
49241;SDS011;35079;52.704;13.814;2023-06-14T09:21:09;4.50;;;3.42;;
49241;SDS011;35079;52.704;13.814;2023-06-14T09:23:36;5.97;;;3.13;;
49241;SDS011;35079;52.704;13.814;2023-06-14T09:26:07;5.10;;;3.10;;
49241;SDS011;35079;52.704;13.814;2023-06-14T09:28:40;3.65;;;3.13;;
49241;SDS011;35079;52.704;13.814;2023-06-14T09:31:13;5.45;;;3.28;;
49241;SDS011;35079;52.704;13.814;2023-06-14T09:33:43;3.83;;;2.80;;
49241;SDS011;35079;52.704;13.814;2023-06-14T09:36:22;6.53;;;3.50;;
49241;SDS011;35079;52.704;13.814;2023-06-14T09:38:54;4.55;;;3.10;;
49241;SDS011;35079;52.704;13.814;2023-06-14T09:41:36;6.75;;;3.40;;
49241;SDS011;35079;52.704;13.814;2023-06-14T09:44:07;7.72;;;3.38;;
49241;SDS011;35079;52.704;13.814;2023-06-14T09:46:34;8.63;;;3.58;;
49241;SDS011;35079;52.704;13.814;2023-06-14T09:49:01;7.00;;;3.50;;
49241;SDS011;35079;52.704;13.814;2023-06-14T09:51:28;7.07;;;3.65;;
49241;SDS011;35079;52.704;13.814;2023-06-14T09:54:03;4.95;;;3.30;;
49241;SDS011;35079;52.704;13.814;2023-06-14T09:56:31;5.80;;;3.08;;
49241;SDS011;35079;52.704;13.814;2023-06-14T09:58:59;6.10;;;3.28;;
49241;SDS011;35079;52.704;13.814;2023-06-14T10:01:31;6.00;;;3.00;;
49241;SDS011;35079;52.704;13.814;2023-06-14T10:04:01;6.40;;;3.78;;
49241;SDS011;35079;52.704;13.814;2023-06-14T10:06:31;7.18;;;4.20;;
49241;SDS011;35079;52.704;13.814;2023-06-14T10:09:02;7.57;;;3.90;;
49241;SDS011;35079;52.704;13.814;2023-06-14T10:11:29;6.25;;;3.70;;
49241;SDS011;35079;52.704;13.814;2023-06-14T10:13:55;7.80;;;4.00;;
49241;SDS011;35079;52.704;13.814;2023-06-14T10:16:30;6.80;;;3.65;;
49241;SDS011;35079;52.704;13.814;2023-06-14T10:24:49;5.38;;;3.72;;
49241;SDS011;35079;52.704;13.814;2023-06-14T10:27:15;6.15;;;3.53;;
49241;SDS011;35079;52.704;13.814;2023-06-14T10:32:23;5.53;;;4.15;;
49241;SDS011;35079;52.704;13.814;2023-06-14T10:34:53;8.90;;;3.90;;
49241;SDS011;35079;52.704;13.814;2023-06-14T10:37:24;8.07;;;3.78;;
49241;SDS011;35079;52.704;13.814;2023-06-14T10:39:50;7.97;;;4.07;;
49241;SDS011;35079;52.704;13.814;2023-06-14T10:42:15;5.82;;;4.20;;
49241;SDS011;35079;52.704;13.814;2023-06-14T10:47:29;7.47;;;3.97;;
49241;SDS011;35079;52.704;13.814;2023-06-14T10:50:04;9.27;;;3.78;;
49241;SDS011;35079;52.704;13.814;2023-06-14T10:52:37;7.93;;;4.00;;
49241;SDS011;35079;52.704;13.814;2023-06-14T10:57:46;5.28;;;3.50;;
49241;SDS011;35079;52.704;13.814;2023-06-14T11:00:24;8.60;;;3.60;;
49241;SDS011;35079;52.704;13.814;2023-06-14T11:05:48;6.47;;;3.58;;
49241;SDS011;35079;52.704;13.814;2023-06-14T11:11:05;5.93;;;3.40;;
49241;SDS011;35079;52.704;13.814;2023-06-14T11:13:32;5.80;;;3.90;;
49241;SDS011;35079;52.704;13.814;2023-06-14T11:15:57;7.03;;;3.33;;
49241;SDS011;35079;52.704;13.814;2023-06-14T11:18:24;7.85;;;3.50;;
49241;SDS011;35079;52.704;13.814;2023-06-14T11:20:52;8.02;;;3.45;;
49241;SDS011;35079;52.704;13.814;2023-06-14T11:23:18;5.20;;;3.53;;
49241;SDS011;35079;52.704;13.814;2023-06-14T11:25:43;4.45;;;3.15;;
49241;SDS011;35079;52.704;13.814;2023-06-14T11:28:14;4.90;;;3.58;;
49241;SDS011;35079;52.704;13.814;2023-06-14T11:30:40;6.75;;;3.03;;
49241;SDS011;35079;52.704;13.814;2023-06-14T11:33:09;6.32;;;3.50;;
49241;SDS011;35079;52.704;13.814;2023-06-14T11:35:35;4.82;;;3.33;;
49241;SDS011;35079;52.704;13.814;2023-06-14T11:38:01;5.30;;;3.30;;
49241;SDS011;35079;52.704;13.814;2023-06-14T11:40:27;8.70;;;3.35;;
49241;SDS011;35079;52.704;13.814;2023-06-14T11:43:00;4.75;;;3.30;;
49241;SDS011;35079;52.704;13.814;2023-06-14T11:45:27;7.82;;;3.25;;
49241;SDS011;35079;52.704;13.814;2023-06-14T11:47:54;4.25;;;3.15;;
49241;SDS011;35079;52.704;13.814;2023-06-14T11:50:24;6.88;;;3.15;;
49241;SDS011;35079;52.704;13.814;2023-06-14T11:52:56;11.77;;;3.60;;
49241;SDS011;35079;52.704;13.814;2023-06-14T11:55:36;5.13;;;3.45;;
49241;SDS011;35079;52.704;13.814;2023-06-14T11:58:05;6.20;;;3.50;;
49241;SDS011;35079;52.704;13.814;2023-06-14T12:00:31;5.70;;;3.08;;
49241;SDS011;35079;52.704;13.814;2023-06-14T12:02:57;5.93;;;3.10;;
49241;SDS011;35079;52.704;13.814;2023-06-14T12:05:24;7.13;;;2.95;;
49241;SDS011;35079;52.704;13.814;2023-06-14T12:07:57;4.22;;;2.72;;
49241;SDS011;35079;52.704;13.814;2023-06-14T12:12:50;4.32;;;2.72;;
49241;SDS011;35079;52.704;13.814;2023-06-14T12:15:16;7.57;;;3.25;;
49241;SDS011;35079;52.704;13.814;2023-06-14T12:17:41;3.88;;;2.90;;
49241;SDS011;35079;52.704;13.814;2023-06-14T12:20:09;9.88;;;3.25;;
49241;SDS011;35079;52.704;13.814;2023-06-14T12:23:02;12.00;;;3.30;;
49241;SDS011;35079;52.704;13.814;2023-06-14T12:25:33;8.93;;;3.20;;
49241;SDS011;35079;52.704;13.814;2023-06-14T12:28:07;3.90;;;2.92;;
49241;SDS011;35079;52.704;13.814;2023-06-14T12:30:37;7.22;;;2.95;;
49241;SDS011;35079;52.704;13.814;2023-06-14T12:33:03;5.15;;;2.90;;
49241;SDS011;35079;52.704;13.814;2023-06-14T12:35:30;5.35;;;3.15;;
49241;SDS011;35079;52.704;13.814;2023-06-14T12:37:56;8.77;;;2.95;;
49241;SDS011;35079;52.704;13.814;2023-06-14T12:40:21;6.07;;;2.85;;
49241;SDS011;35079;52.704;13.814;2023-06-14T12:42:47;8.98;;;3.28;;
49241;SDS011;35079;52.704;13.814;2023-06-14T12:45:13;7.30;;;2.90;;
49241;SDS011;35079;52.704;13.814;2023-06-14T12:47:40;6.63;;;2.97;;
49241;SDS011;35079;52.704;13.814;2023-06-14T12:50:06;8.43;;;2.72;;
49241;SDS011;35079;52.704;13.814;2023-06-14T12:52:32;5.55;;;2.67;;
49241;SDS011;35079;52.704;13.814;2023-06-14T12:55:04;7.03;;;2.95;;
49241;SDS011;35079;52.704;13.814;2023-06-14T12:57:30;10.93;;;2.92;;
49241;SDS011;35079;52.704;13.814;2023-06-14T12:59:55;11.35;;;2.63;;
49241;SDS011;35079;52.704;13.814;2023-06-14T13:02:21;8.38;;;2.88;;
49241;SDS011;35079;52.704;13.814;2023-06-14T13:04:48;5.63;;;2.92;;
49241;SDS011;35079;52.704;13.814;2023-06-14T13:07:14;7.20;;;2.58;;
49241;SDS011;35079;52.704;13.814;2023-06-14T13:09:40;9.50;;;2.70;;
49241;SDS011;35079;52.704;13.814;2023-06-14T13:12:06;6.10;;;2.72;;
49241;SDS011;35079;52.704;13.814;2023-06-14T13:14:32;6.60;;;2.63;;
49241;SDS011;35079;52.704;13.814;2023-06-14T13:16:58;4.35;;;2.75;;
49241;SDS011;35079;52.704;13.814;2023-06-14T13:19:23;9.93;;;3.17;;
49241;SDS011;35079;52.704;13.814;2023-06-14T13:21:49;4.90;;;2.90;;
49241;SDS011;35079;52.704;13.814;2023-06-14T13:24:15;5.00;;;3.22;;
49241;SDS011;35079;52.704;13.814;2023-06-14T13:26:40;7.32;;;3.17;;
49241;SDS011;35079;52.704;13.814;2023-06-14T13:29:06;6.90;;;2.80;;
49241;SDS011;35079;52.704;13.814;2023-06-14T13:31:31;9.45;;;2.88;;
49241;SDS011;35079;52.704;13.814;2023-06-14T13:33:58;5.80;;;2.70;;
49241;SDS011;35079;52.704;13.814;2023-06-14T13:36:23;6.43;;;3.08;;
49241;SDS011;35079;52.704;13.814;2023-06-14T13:38:49;3.85;;;2.80;;
49241;SDS011;35079;52.704;13.814;2023-06-14T13:41:16;7.75;;;3.08;;
49241;SDS011;35079;52.704;13.814;2023-06-14T13:43:42;5.75;;;3.28;;
49241;SDS011;35079;52.704;13.814;2023-06-14T13:46:07;6.00;;;2.53;;
49241;SDS011;35079;52.704;13.814;2023-06-14T13:48:33;8.43;;;3.45;;
49241;SDS011;35079;52.704;13.814;2023-06-14T13:50:59;6.90;;;3.15;;
49241;SDS011;35079;52.704;13.814;2023-06-14T13:53:25;5.53;;;3.03;;
49241;SDS011;35079;52.704;13.814;2023-06-14T13:55:51;10.98;;;3.28;;
49241;SDS011;35079;52.704;13.814;2023-06-14T13:58:17;7.35;;;3.20;;
49241;SDS011;35079;52.704;13.814;2023-06-14T14:00:44;8.40;;;2.60;;
49241;SDS011;35079;52.704;13.814;2023-06-14T14:03:09;4.25;;;2.67;;
49241;SDS011;35079;52.704;13.814;2023-06-14T14:05:36;3.65;;;2.92;;
49241;SDS011;35079;52.704;13.814;2023-06-14T14:08:01;3.90;;;2.67;;
49241;SDS011;35079;52.704;13.814;2023-06-14T14:10:27;4.63;;;2.80;;
49241;SDS011;35079;52.704;13.814;2023-06-14T14:12:53;6.20;;;2.80;;
49241;SDS011;35079;52.704;13.814;2023-06-14T14:15:19;9.00;;;2.65;;
49241;SDS011;35079;52.704;13.814;2023-06-14T14:17:45;6.35;;;2.80;;
49241;SDS011;35079;52.704;13.814;2023-06-14T14:20:12;4.63;;;2.30;;
49241;SDS011;35079;52.704;13.814;2023-06-14T14:22:40;4.05;;;2.90;;
49241;SDS011;35079;52.704;13.814;2023-06-14T14:25:06;6.82;;;2.58;;
49241;SDS011;35079;52.704;13.814;2023-06-14T14:27:32;6.47;;;2.95;;
49241;SDS011;35079;52.704;13.814;2023-06-14T14:29:58;7.13;;;2.67;;
49241;SDS011;35079;52.704;13.814;2023-06-14T14:32:23;9.93;;;2.97;;
49241;SDS011;35079;52.704;13.814;2023-06-14T14:34:49;5.97;;;2.72;;
49241;SDS011;35079;52.704;13.814;2023-06-14T14:37:15;6.18;;;2.78;;
49241;SDS011;35079;52.704;13.814;2023-06-14T14:39:41;7.65;;;2.90;;
49241;SDS011;35079;52.704;13.814;2023-06-14T14:42:07;16.65;;;3.50;;
49241;SDS011;35079;52.704;13.814;2023-06-14T14:44:32;10.45;;;2.95;;
49241;SDS011;35079;52.704;13.814;2023-06-14T14:46:58;8.88;;;3.00;;
49241;SDS011;35079;52.704;13.814;2023-06-14T14:49:24;5.95;;;2.67;;
49241;SDS011;35079;52.704;13.814;2023-06-14T14:51:50;5.93;;;2.50;;
49241;SDS011;35079;52.704;13.814;2023-06-14T14:54:15;31.52;;;4.38;;
49241;SDS011;35079;52.704;13.814;2023-06-14T14:56:41;11.25;;;3.10;;
49241;SDS011;35079;52.704;13.814;2023-06-14T14:59:07;15.70;;;3.10;;
49241;SDS011;35079;52.704;13.814;2023-06-14T15:01:33;5.28;;;3.13;;